createdAt,value
2022-10-09T00:01:17.133Z,36.75
2022-10-09T00:03:45.982Z,34.65
2022-10-09T00:06:16.548Z,42.15
2022-10-09T00:08:46.332Z,39.45
2022-10-09T00:11:19.095Z,41.72
2022-10-09T00:13:45.640Z,41.10
2022-10-09T00:16:14.643Z,35.13
2022-10-09T00:18:43.084Z,43.83
2022-10-09T00:21:31.248Z,41.85
2022-10-09T00:24:00.803Z,46.17
2022-10-09T00:26:27.771Z,34.88
2022-10-09T00:28:55.789Z,38.28
2022-10-09T00:31:23.103Z,37.47
2022-10-09T00:33:49.946Z,38.95
2022-10-09T00:36:23.037Z,42.75
2022-10-09T00:38:49.803Z,45.45
2022-10-09T00:41:19.885Z,36.40
2022-10-09T00:43:52.880Z,39.22
2022-10-09T00:46:35.861Z,39.65
2022-10-09T00:49:23.634Z,40.00
2022-10-09T00:51:51.731Z,36.17
2022-10-09T00:54:22.622Z,48.78
2022-10-09T00:56:49.877Z,35.55
2022-10-09T00:59:17.858Z,41.67
2022-10-09T01:01:45.386Z,35.85
2022-10-09T01:04:12.492Z,41.10
2022-10-09T01:07:05.697Z,37.97
2022-10-09T01:09:39.727Z,37.05
2022-10-09T01:12:09.133Z,37.33
2022-10-09T01:14:46.606Z,42.60
2022-10-09T01:18:09.191Z,39.40
2022-10-09T01:20:49.017Z,36.88
2022-10-09T01:23:31.188Z,39.63
2022-10-09T01:26:09.745Z,39.33
2022-10-09T01:28:39.122Z,36.92
2022-10-09T01:31:07.557Z,43.53
2022-10-09T01:33:34.803Z,36.17
2022-10-09T01:36:03.173Z,39.45
2022-10-09T01:38:31.150Z,32.85
2022-10-09T01:40:58.639Z,33.13
2022-10-09T01:43:25.190Z,35.70
2022-10-09T01:45:51.794Z,34.67
2022-10-09T01:48:24.857Z,33.50
2022-10-09T01:50:59.406Z,31.55
2022-10-09T01:53:26.352Z,27.80
2022-10-09T01:56:02.538Z,28.88
2022-10-09T01:59:02.176Z,30.63
2022-10-09T02:01:35.759Z,33.40
2022-10-09T02:04:05.803Z,40.65
2022-10-09T02:06:34.149Z,42.80
2022-10-09T02:09:04.133Z,41.88
2022-10-09T02:11:33.216Z,43.13
2022-10-09T02:13:59.865Z,44.88
2022-10-09T02:16:45.926Z,41.30
2022-10-09T02:19:50.244Z,39.85
2022-10-09T02:22:27.698Z,35.38
2022-10-09T02:24:56.655Z,38.72
2022-10-09T02:27:23.357Z,42.15
2022-10-09T02:29:50.825Z,37.33
2022-10-09T02:32:17.714Z,39.42
2022-10-09T02:34:44.682Z,34.67
2022-10-09T02:37:11.238Z,30.83
2022-10-09T02:39:38.048Z,28.30
2022-10-09T02:42:04.673Z,28.77
2022-10-09T02:44:31.261Z,25.83
2022-10-09T02:46:57.768Z,30.02
2022-10-09T02:49:24.357Z,24.35
2022-10-09T02:51:50.885Z,29.95
2022-10-09T02:54:17.793Z,27.27
2022-10-09T02:56:44.329Z,28.30
2022-10-09T02:59:10.907Z,28.33
2022-10-09T03:01:37.542Z,28.50
2022-10-09T03:04:05.051Z,23.08
2022-10-09T03:06:32.004Z,24.25
2022-10-09T03:08:58.534Z,30.42
2022-10-09T03:11:26.538Z,25.15
2022-10-09T03:13:54.394Z,29.50
2022-10-09T03:16:26.347Z,22.73
2022-10-09T03:18:54.059Z,25.70
2022-10-09T03:21:23.841Z,28.23
2022-10-09T03:23:50.533Z,22.98
2022-10-09T03:26:20.682Z,20.02
2022-10-09T03:28:49.354Z,25.25
2022-10-09T03:31:33.395Z,20.08
2022-10-09T03:34:04.657Z,23.52
2022-10-09T03:36:31.205Z,20.35
2022-10-09T03:38:57.747Z,18.98
2022-10-09T03:41:24.335Z,15.88
2022-10-09T03:43:50.886Z,19.55
2022-10-09T03:46:17.480Z,21.73
2022-10-09T03:48:44.078Z,13.40
2022-10-09T03:51:10.689Z,13.02
2022-10-09T03:53:37.312Z,16.75
2022-10-09T03:56:03.875Z,15.77
2022-10-09T03:58:30.510Z,14.35
2022-10-09T04:00:57.085Z,15.68
2022-10-09T04:03:24.206Z,21.05
2022-10-09T04:05:50.694Z,16.30
2022-10-09T04:08:17.220Z,10.40
2022-10-09T04:10:43.887Z,13.35
2022-10-09T04:13:10.543Z,10.95
2022-10-09T04:15:37.701Z,10.85
2022-10-09T04:18:04.949Z,14.48
2022-10-09T04:20:31.918Z,12.20
2022-10-09T04:22:58.445Z,12.50
2022-10-09T04:25:25.053Z,10.90
2022-10-09T04:27:51.562Z,16.63
2022-10-09T04:30:18.066Z,14.13
2022-10-09T04:32:44.676Z,11.15
2022-10-09T04:35:11.226Z,11.75
2022-10-09T04:37:37.857Z,10.27
2022-10-09T04:40:04.957Z,15.35
2022-10-09T04:42:31.469Z,10.18
2022-10-09T04:44:58.138Z,11.30
2022-10-09T04:47:24.720Z,13.30
2022-10-09T04:49:51.236Z,8.10
2022-10-09T04:52:17.810Z,16.67
2022-10-09T04:54:44.380Z,11.27
2022-10-09T04:57:10.887Z,11.13
2022-10-09T04:59:37.425Z,9.20
2022-10-09T05:02:04.095Z,11.93
2022-10-09T05:04:30.801Z,12.02
2022-10-09T05:06:57.330Z,11.25
2022-10-09T05:09:23.910Z,10.10
2022-10-09T05:11:50.728Z,15.82
2022-10-09T05:14:17.278Z,9.82
2022-10-09T05:17:08.176Z,11.13
2022-10-09T05:19:31.362Z,11.57
2022-10-09T05:21:58.682Z,13.88
2022-10-09T05:24:25.294Z,10.45
2022-10-09T05:26:51.945Z,14.90
2022-10-09T05:29:18.644Z,15.23
2022-10-09T05:31:49.328Z,11.27
2022-10-09T05:34:16.243Z,15.55
2022-10-09T05:36:42.787Z,9.73
2022-10-09T05:39:09.362Z,8.57
2022-10-09T05:41:36.047Z,10.48
2022-10-09T05:44:03.660Z,14.85
2022-10-09T05:46:30.981Z,8.95
2022-10-09T05:49:06.749Z,10.98
2022-10-09T05:51:36.667Z,8.40
2022-10-09T05:54:04.715Z,7.63
2022-10-09T05:56:35.117Z,13.48
2022-10-09T05:59:04.445Z,7.25
2022-10-09T06:01:37.031Z,9.75
2022-10-09T06:04:04.700Z,8.88
2022-10-09T06:06:35.557Z,6.78
2022-10-09T06:09:02.125Z,12.10
2022-10-09T06:11:34.433Z,13.25
2022-10-09T06:14:02.489Z,15.23
2022-10-09T06:16:32.586Z,11.27
2022-10-09T06:18:59.577Z,10.00
2022-10-09T06:21:26.740Z,12.50
2022-10-09T06:23:58.081Z,10.00
2022-10-09T06:26:26.296Z,13.85
2022-10-09T06:28:53.013Z,12.55
2022-10-09T06:31:22.598Z,16.65
2022-10-09T06:33:50.734Z,9.82
2022-10-09T06:36:21.115Z,13.75
2022-10-09T06:38:48.097Z,16.80
2022-10-09T06:41:20.616Z,13.40
2022-10-09T06:43:58.526Z,9.40
2022-10-09T06:46:28.190Z,14.23
2022-10-09T06:48:55.060Z,11.15
2022-10-09T06:51:23.607Z,8.98
2022-10-09T06:53:53.389Z,12.30
2022-10-09T06:56:22.544Z,11.85
2022-10-09T06:58:49.635Z,14.07
2022-10-09T07:01:19.672Z,13.00
2022-10-09T07:03:48.764Z,11.65
2022-10-09T07:06:20.549Z,12.35
2022-10-09T07:08:49.769Z,15.75
2022-10-09T07:11:21.001Z,12.68
2022-10-09T07:13:49.822Z,11.43
2022-10-09T07:16:21.277Z,8.30
2022-10-09T07:18:48.312Z,15.93
2022-10-09T07:21:15.780Z,9.13
2022-10-09T07:23:42.765Z,9.05
2022-10-09T07:26:14.089Z,14.13
2022-10-09T07:28:41.979Z,8.82
2022-10-09T07:31:08.889Z,11.40
2022-10-09T07:33:35.573Z,6.78
2022-10-09T07:36:04.589Z,10.23
2022-10-09T07:38:31.958Z,6.75
2022-10-09T07:41:06.816Z,9.32
2022-10-09T07:46:03.925Z,7.70
2022-10-09T07:48:30.869Z,8.93
2022-10-09T07:50:57.760Z,6.82
2022-10-09T07:53:24.372Z,7.80
2022-10-09T07:55:50.964Z,7.32
2022-10-09T07:58:17.849Z,6.30
2022-10-09T08:00:44.455Z,9.70
2022-10-09T08:03:11.043Z,4.53
2022-10-09T08:05:37.780Z,10.60
2022-10-09T08:08:04.918Z,8.98
2022-10-09T08:10:32.254Z,10.10
2022-10-09T08:12:59.093Z,6.60
2022-10-09T08:15:27.108Z,6.55
2022-10-09T08:17:55.048Z,8.43
2022-10-09T08:20:21.806Z,7.22
2022-10-09T08:22:48.626Z,6.15
2022-10-09T08:25:15.449Z,4.18
2022-10-09T08:27:42.100Z,4.85
2022-10-09T08:30:09.094Z,4.45
2022-10-09T08:32:35.649Z,5.75
2022-10-09T08:35:02.244Z,5.78
2022-10-09T08:37:28.761Z,12.85
2022-10-09T08:39:59.765Z,6.05
2022-10-09T08:42:32.576Z,6.85
2022-10-09T08:44:59.411Z,6.00
2022-10-09T08:47:33.197Z,4.35
2022-10-09T08:50:09.012Z,6.70
2022-10-09T08:52:49.871Z,8.43
2022-10-09T08:55:26.657Z,6.30
2022-10-09T08:57:55.931Z,7.10
2022-10-09T09:00:27.151Z,7.75
2022-10-09T09:03:23.856Z,11.77
2022-10-09T09:05:56.419Z,4.78
2022-10-09T09:08:28.851Z,7.72
2022-10-09T09:11:20.600Z,5.80
2022-10-09T09:14:15.133Z,4.78
2022-10-09T09:17:00.968Z,7.55
2022-10-09T09:19:59.443Z,3.30
2022-10-09T09:22:27.240Z,7.93
2022-10-09T09:24:59.061Z,6.07
2022-10-09T09:27:36.811Z,4.55
2022-10-09T09:30:18.369Z,6.40
2022-10-09T09:33:11.547Z,5.60
2022-10-09T09:35:49.729Z,8.02
2022-10-09T09:38:16.768Z,8.07
2022-10-09T09:40:47.262Z,8.10
2022-10-09T09:43:20.097Z,12.30
2022-10-09T09:45:47.705Z,5.95
2022-10-09T09:48:20.400Z,4.50
2022-10-09T09:51:04.985Z,5.75
2022-10-09T09:53:45.875Z,7.68
2022-10-09T09:56:12.572Z,3.42
2022-10-09T09:58:40.791Z,2.50
2022-10-09T10:01:13.602Z,6.10
2022-10-09T10:03:50.244Z,5.78
2022-10-09T10:06:29.881Z,4.53
2022-10-09T10:09:18.244Z,4.63
2022-10-09T10:11:49.536Z,6.18
2022-10-09T10:14:18.022Z,5.57
2022-10-09T10:16:50.014Z,2.78
2022-10-09T10:19:38.811Z,3.08
2022-10-09T10:22:07.937Z,4.97
2022-10-09T10:24:42.760Z,5.50
2022-10-09T10:29:46.754Z,3.17
2022-10-09T10:32:25.627Z,4.60
2022-10-09T10:35:04.411Z,5.28
2022-10-09T10:37:33.642Z,6.68
2022-10-09T10:40:12.588Z,5.15
2022-10-09T10:43:07.932Z,5.22
2022-10-09T10:45:58.553Z,3.10
2022-10-09T10:48:50.552Z,3.03
2022-10-09T10:51:17.045Z,4.95
2022-10-09T10:53:59.409Z,3.67
2022-10-09T10:56:38.757Z,3.38
2022-10-09T10:59:24.890Z,9.02
2022-10-09T11:02:17.494Z,6.30
2022-10-09T11:05:22.969Z,3.75
2022-10-09T11:07:59.789Z,2.83
2022-10-09T11:10:38.497Z,4.22
2022-10-09T11:13:21.228Z,4.00
2022-10-09T11:16:05.978Z,4.93
2022-10-09T11:19:04.241Z,6.35
2022-10-09T11:21:58.817Z,11.68
2022-10-09T11:24:57.801Z,3.77
2022-10-09T11:27:34.506Z,5.50
2022-10-09T11:30:08.399Z,4.28
2022-10-09T11:32:43.882Z,6.43
2022-10-09T11:35:20.683Z,4.50
2022-10-09T11:37:58.693Z,8.68
2022-10-09T11:40:40.147Z,3.92
2022-10-09T11:43:22.079Z,4.70
2022-10-09T11:46:15.001Z,4.35
2022-10-09T11:49:15.979Z,4.00
2022-10-09T11:51:50.443Z,3.42
2022-10-09T11:54:20.077Z,4.68
2022-10-09T11:57:15.510Z,6.55
2022-10-09T11:59:42.607Z,4.38
2022-10-09T12:02:21.251Z,3.97
2022-10-09T12:04:55.905Z,3.65
2022-10-09T12:10:09.061Z,5.28
2022-10-09T12:12:38.857Z,5.32
2022-10-09T12:15:25.897Z,4.05
2022-10-09T12:17:52.610Z,7.88
2022-10-09T12:20:25.458Z,7.47
2022-10-09T12:23:24.728Z,7.97
2022-10-09T12:25:45.993Z,4.32
2022-10-09T12:28:29.139Z,6.88
2022-10-09T12:30:59.583Z,6.63
2022-10-09T12:33:29.667Z,4.95
2022-10-09T12:36:06.503Z,5.95
2022-10-09T12:38:33.467Z,5.38
2022-10-09T12:41:05.066Z,9.07
2022-10-09T12:43:33.187Z,5.38
2022-10-09T12:46:00.206Z,7.97
2022-10-09T12:48:29.321Z,5.32
2022-10-09T12:50:56.435Z,8.75
2022-10-09T12:53:28.233Z,7.22
2022-10-09T12:56:00.875Z,4.88
2022-10-09T12:58:37.001Z,7.38
2022-10-09T13:01:06.833Z,4.10
2022-10-09T13:03:37.408Z,7.68
2022-10-09T13:06:46.993Z,2.85
2022-10-09T13:09:22.798Z,6.50
2022-10-09T13:12:06.563Z,5.20
2022-10-09T13:14:41.653Z,4.28
2022-10-09T13:17:28.416Z,6.28
2022-10-09T13:19:57.224Z,3.88
2022-10-09T13:22:31.101Z,3.38
2022-10-09T13:25:01.774Z,10.95
2022-10-09T13:27:32.680Z,7.88
2022-10-09T13:30:00.520Z,4.28
2022-10-09T13:32:27.586Z,7.28
2022-10-09T13:34:55.387Z,5.95
2022-10-09T13:37:25.558Z,4.10
2022-10-09T13:39:58.850Z,3.88
2022-10-09T13:42:28.191Z,4.90
2022-10-09T13:44:54.886Z,4.10
2022-10-09T13:47:24.663Z,6.47
2022-10-09T13:49:51.583Z,4.07
2022-10-09T13:52:18.108Z,9.30
2022-10-09T13:54:45.267Z,3.60
2022-10-09T13:57:12.082Z,3.08
2022-10-09T13:59:39.282Z,4.88
2022-10-09T14:02:05.842Z,4.90
2022-10-09T14:04:32.388Z,4.28
2022-10-09T14:06:59.001Z,4.65
2022-10-09T14:09:25.698Z,5.30
2022-10-09T14:11:52.446Z,4.63
2022-10-09T14:14:19.201Z,4.97
2022-10-09T14:16:49.255Z,5.88
2022-10-09T14:19:16.055Z,4.28
2022-10-09T14:21:43.024Z,5.75
2022-10-09T14:24:10.337Z,3.65
2022-10-09T14:26:37.666Z,4.47
2022-10-09T14:29:04.305Z,14.90
2022-10-09T14:31:30.885Z,5.90
2022-10-09T14:33:59.564Z,4.25
2022-10-09T14:36:26.798Z,4.80
2022-10-09T14:38:53.879Z,3.75
2022-10-09T14:41:20.649Z,3.35
2022-10-09T14:43:48.164Z,3.20
2022-10-09T14:46:17.357Z,5.63
2022-10-09T14:48:45.351Z,6.35
2022-10-09T14:51:17.933Z,4.75
2022-10-09T14:53:44.731Z,3.65
2022-10-09T14:56:14.010Z,11.70
2022-10-09T14:58:40.848Z,6.00
2022-10-09T15:01:11.541Z,3.40
2022-10-09T15:03:38.096Z,5.60
2022-10-09T15:06:07.496Z,2.88
2022-10-09T15:08:36.516Z,3.78
2022-10-09T15:11:03.649Z,4.57
2022-10-09T15:13:30.499Z,6.80
2022-10-09T15:16:04.927Z,5.47
2022-10-09T15:18:31.633Z,3.35
2022-10-09T15:20:59.677Z,7.47
2022-10-09T15:23:27.272Z,2.92
2022-10-09T15:25:56.821Z,6.68
2022-10-09T15:28:24.095Z,6.70
2022-10-09T15:30:53.412Z,7.35
2022-10-09T15:33:22.234Z,6.97
2022-10-09T15:35:51.822Z,5.60
2022-10-09T15:38:21.146Z,8.90
2022-10-09T15:40:50.053Z,6.03
2022-10-09T15:43:19.316Z,6.45
2022-10-09T15:45:46.685Z,6.22
2022-10-09T15:48:21.732Z,5.22
2022-10-09T15:50:51.585Z,6.35
2022-10-09T15:53:19.945Z,6.43
2022-10-09T15:55:48.237Z,7.63
2022-10-09T15:58:16.095Z,3.92
2022-10-09T16:00:47.335Z,9.50
2022-10-09T16:03:15.030Z,6.97
2022-10-09T16:05:48.486Z,6.78
2022-10-09T16:08:16.111Z,4.10
2022-10-09T16:10:48.438Z,9.20
2022-10-09T16:13:16.082Z,6.22
2022-10-09T16:15:44.304Z,4.95
2022-10-09T16:18:11.372Z,6.63
2022-10-09T16:20:40.586Z,5.78
2022-10-09T16:23:08.581Z,2.50
2022-10-09T16:25:36.402Z,3.10
2022-10-09T16:28:03.670Z,6.05
2022-10-09T16:30:30.640Z,8.15
2022-10-09T16:32:57.172Z,3.28
2022-10-09T16:35:23.965Z,7.25
2022-10-09T16:37:53.334Z,5.05
2022-10-09T16:40:25.422Z,8.02
2022-10-09T16:43:02.177Z,8.80
2022-10-09T16:45:29.138Z,10.85
2022-10-09T16:47:59.804Z,10.48
2022-10-09T16:50:26.854Z,7.75
2022-10-09T16:52:53.394Z,12.23
2022-10-09T16:55:19.926Z,12.45
2022-10-09T16:57:46.816Z,11.70
2022-10-09T17:00:16.093Z,12.40
2022-10-09T17:02:45.541Z,13.10
2022-10-09T17:05:12.133Z,16.85
2022-10-09T17:07:38.709Z,16.40
2022-10-09T17:10:05.931Z,26.02
2022-10-09T17:12:32.690Z,23.88
2022-10-09T17:14:59.663Z,19.95
2022-10-09T17:17:27.561Z,21.65
2022-10-09T17:19:54.335Z,16.38
2022-10-09T17:22:21.021Z,16.08
2022-10-09T17:24:47.621Z,12.35
2022-10-09T17:27:14.328Z,14.05
2022-10-09T17:29:40.943Z,13.80
2022-10-09T17:32:09.282Z,14.63
2022-10-09T17:34:35.978Z,9.98
2022-10-09T17:37:02.602Z,16.83
2022-10-09T17:39:29.513Z,16.40
2022-10-09T17:41:56.222Z,14.00
2022-10-09T17:44:23.496Z,16.80
2022-10-09T17:46:50.012Z,14.07
2022-10-09T17:49:16.618Z,10.07
2022-10-09T17:51:43.193Z,13.38
2022-10-09T17:54:15.556Z,16.05
2022-10-09T17:56:42.404Z,19.25
2022-10-09T17:59:09.437Z,10.82
2022-10-09T18:01:36.999Z,12.93
2022-10-09T18:04:03.980Z,17.48
2022-10-09T18:06:32.768Z,16.85
2022-10-09T18:08:59.486Z,16.83
2022-10-09T18:11:26.885Z,24.65
2022-10-09T18:13:54.628Z,17.42
2022-10-09T18:16:36.474Z,16.85
2022-10-09T18:19:14.701Z,12.10
2022-10-09T18:21:43.736Z,16.92
2022-10-09T18:24:11.156Z,12.57
2022-10-09T18:26:37.966Z,14.80
2022-10-09T18:29:04.826Z,10.90
2022-10-09T18:31:31.974Z,13.82
2022-10-09T18:33:59.542Z,17.27
2022-10-09T18:36:31.631Z,24.55
2022-10-09T18:39:04.944Z,17.83
2022-10-09T18:41:32.366Z,14.38
2022-10-09T18:44:00.145Z,16.90
2022-10-09T18:46:29.121Z,15.30
2022-10-09T18:48:55.907Z,13.45
2022-10-09T18:51:25.980Z,11.65
2022-10-09T18:53:56.119Z,15.13
2022-10-09T18:56:22.985Z,13.50
2022-10-09T18:58:52.134Z,15.18
2022-10-09T19:01:19.691Z,14.80
2022-10-09T19:03:49.919Z,9.50
2022-10-09T19:06:18.317Z,16.65
2022-10-09T19:08:45.156Z,13.65
2022-10-09T19:11:14.317Z,13.40
2022-10-09T19:13:42.258Z,11.30
2022-10-09T19:16:09.899Z,14.23
2022-10-09T19:18:37.046Z,14.45
2022-10-09T19:21:03.963Z,17.98
2022-10-09T19:23:30.687Z,15.23
2022-10-09T19:25:58.945Z,14.05
2022-10-09T19:28:30.576Z,14.95
2022-10-09T19:30:57.480Z,16.85
2022-10-09T19:33:24.072Z,13.63
2022-10-09T19:35:55.696Z,11.32
2022-10-09T19:38:22.693Z,14.10
2022-10-09T19:40:50.461Z,12.13
2022-10-09T19:43:19.297Z,19.02
2022-10-09T19:45:49.138Z,11.00
2022-10-09T19:48:17.131Z,12.70
2022-10-09T19:50:45.074Z,11.90
2022-10-09T19:53:12.781Z,12.38
2022-10-09T19:55:39.377Z,12.15
2022-10-09T19:58:06.779Z,12.52
2022-10-09T20:00:33.396Z,16.30
2022-10-09T20:02:59.980Z,13.52
2022-10-09T20:05:26.569Z,14.15
2022-10-09T20:07:53.103Z,12.35
2022-10-09T20:10:19.926Z,12.38
2022-10-09T20:12:46.441Z,10.98
2022-10-09T20:15:13.102Z,24.10
2022-10-09T20:17:39.617Z,19.45
2022-10-09T20:20:06.655Z,13.02
2022-10-09T20:22:33.202Z,16.27
2022-10-09T20:24:59.761Z,12.50
2022-10-09T20:27:26.436Z,12.73
2022-10-09T20:29:53.693Z,14.65
2022-10-09T20:32:20.315Z,15.32
2022-10-09T20:34:46.927Z,14.52
2022-10-09T20:37:13.525Z,15.10
2022-10-09T20:39:40.108Z,17.63
2022-10-09T20:42:06.760Z,10.05
2022-10-09T20:44:33.304Z,12.73
2022-10-09T20:46:59.843Z,19.30
2022-10-09T20:49:26.730Z,15.93
2022-10-09T20:51:53.324Z,20.13
2022-10-09T20:54:21.684Z,11.98
2022-10-09T20:56:48.722Z,12.15
2022-10-09T20:59:16.991Z,14.05
2022-10-09T21:01:43.999Z,12.48
2022-10-09T21:04:12.170Z,14.48
2022-10-09T21:06:38.836Z,16.85
2022-10-09T21:09:05.715Z,17.98
2022-10-09T21:11:34.561Z,15.48
2022-10-09T21:14:02.453Z,12.40
2022-10-09T21:16:29.480Z,11.60
2022-10-09T21:18:59.102Z,11.95
2022-10-09T21:21:26.614Z,12.55
2022-10-09T21:23:55.044Z,11.10
2022-10-09T21:26:22.888Z,12.82
2022-10-09T21:28:50.107Z,12.52
2022-10-09T21:31:19.601Z,15.73
2022-10-09T21:33:47.385Z,11.98
2022-10-09T21:36:28.406Z,14.20
2022-10-09T21:38:54.954Z,14.25
2022-10-09T21:41:22.013Z,12.55
2022-10-09T21:43:48.566Z,13.85
2022-10-09T21:46:15.124Z,11.15
2022-10-09T21:48:41.637Z,11.27
2022-10-09T21:51:08.172Z,13.25
2022-10-09T21:53:34.835Z,15.50
2022-10-09T21:56:04.897Z,18.88
2022-10-09T21:58:31.525Z,14.73
2022-10-09T22:01:00.410Z,12.30
2022-10-09T22:03:28.715Z,10.90
2022-10-09T22:05:55.469Z,13.18
2022-10-09T22:08:23.518Z,14.40
2022-10-09T22:10:50.224Z,12.98
2022-10-09T22:13:17.590Z,13.00
2022-10-09T22:15:48.811Z,13.70
2022-10-09T22:18:17.559Z,13.80
2022-10-09T22:20:47.592Z,16.98
2022-10-09T22:23:14.915Z,11.70
2022-10-09T22:25:41.439Z,14.30
2022-10-09T22:28:08.093Z,11.45
2022-10-09T22:30:34.754Z,13.02
2022-10-09T22:33:01.309Z,11.68
2022-10-09T22:35:27.931Z,12.68
2022-10-09T22:37:54.496Z,17.98
2022-10-09T22:40:21.582Z,14.73
2022-10-09T22:42:48.567Z,12.15
2022-10-09T22:45:15.312Z,17.52
2022-10-09T22:47:41.857Z,12.45
2022-10-09T22:50:08.766Z,11.30
2022-10-09T22:52:35.422Z,11.20
2022-10-09T22:55:02.175Z,11.25
2022-10-09T22:57:28.711Z,13.18
2022-10-09T22:59:55.256Z,11.27
2022-10-09T23:02:21.843Z,11.13
2022-10-09T23:04:48.403Z,12.32
2022-10-09T23:07:15.040Z,14.70
2022-10-09T23:09:41.569Z,12.30
2022-10-09T23:12:08.205Z,15.18
2022-10-09T23:14:34.843Z,14.60
2022-10-09T23:17:01.369Z,10.65
2022-10-09T23:19:27.950Z,11.50
2022-10-09T23:21:54.537Z,12.20
2022-10-09T23:24:21.131Z,13.15
2022-10-09T23:26:50.848Z,10.68
2022-10-09T23:29:19.444Z,13.98
2022-10-09T23:31:46.659Z,12.27
2022-10-09T23:34:13.318Z,12.40
2022-10-09T23:36:39.901Z,15.98
2022-10-09T23:39:07.258Z,11.95
2022-10-09T23:41:34.325Z,12.70
2022-10-09T23:44:00.898Z,14.90
2022-10-09T23:46:30.098Z,19.95
2022-10-09T23:48:57.316Z,12.60
2022-10-09T23:51:25.689Z,16.10
2022-10-09T23:53:52.822Z,13.48
2022-10-09T23:56:24.424Z,14.93
2022-10-09T23:58:51.985Z,13.68
